createdAt,value
2023-04-14T00:00:52.815Z,9.40
2023-04-14T00:03:19.764Z,9.52
2023-04-14T00:05:46.662Z,9.63
2023-04-14T00:08:13.641Z,9.95
2023-04-14T00:10:40.607Z,9.69
2023-04-14T00:13:07.263Z,9.66
2023-04-14T00:15:33.864Z,9.46
2023-04-14T00:18:00.633Z,9.40
2023-04-14T00:20:27.302Z,9.42
2023-04-14T00:22:53.962Z,9.73
2023-04-14T00:25:20.763Z,9.71
2023-04-14T00:27:47.587Z,9.77
2023-04-14T00:30:14.336Z,9.89
2023-04-14T00:32:41.017Z,10.07
2023-04-14T00:35:07.705Z,9.66
2023-04-14T00:37:34.284Z,9.89
2023-04-14T00:40:00.908Z,10.03
2023-04-14T00:42:27.532Z,9.91
2023-04-14T00:44:54.145Z,9.95
2023-04-14T00:47:20.741Z,9.84
2023-04-14T00:49:47.506Z,9.92
2023-04-14T00:52:14.132Z,9.72
2023-04-14T00:54:40.827Z,9.89
2023-04-14T00:57:07.440Z,9.97
2023-04-14T00:59:34.080Z,9.19
2023-04-14T01:02:00.750Z,9.38
2023-04-14T01:04:33.846Z,9.50
2023-04-14T01:07:11.603Z,9.29
2023-04-14T01:09:38.221Z,9.20
2023-04-14T01:12:04.879Z,9.41
2023-04-14T01:14:31.558Z,9.49
2023-04-14T01:16:58.167Z,9.48
2023-04-14T01:19:24.835Z,9.38
2023-04-14T01:21:51.525Z,9.49
2023-04-14T01:24:18.167Z,9.38
2023-04-14T01:26:44.938Z,9.26
2023-04-14T01:29:11.592Z,9.57
2023-04-14T01:31:38.706Z,9.52
2023-04-14T01:34:05.375Z,9.30
2023-04-14T01:36:32.183Z,8.99
2023-04-14T01:38:58.923Z,9.16
2023-04-14T01:41:25.758Z,9.33
2023-04-14T01:43:52.360Z,9.17
2023-04-14T01:46:19.120Z,8.90
2023-04-14T01:48:45.899Z,9.30
2023-04-14T01:51:12.515Z,9.47
2023-04-14T01:53:39.155Z,9.24
2023-04-14T01:56:05.850Z,9.53
2023-04-14T01:58:32.538Z,9.25
2023-04-14T02:00:59.187Z,9.47
2023-04-14T02:03:26.094Z,9.39
2023-04-14T02:05:52.770Z,8.99
2023-04-14T02:08:19.404Z,9.20
2023-04-14T02:10:46.042Z,9.47
2023-04-14T02:13:12.695Z,9.45
2023-04-14T02:15:39.319Z,9.69
2023-04-14T02:18:05.985Z,9.41
2023-04-14T02:20:32.661Z,9.50
2023-04-14T02:22:59.375Z,9.48
2023-04-14T02:25:25.967Z,9.58
2023-04-14T02:27:52.575Z,9.32
2023-04-14T02:30:19.212Z,9.34
2023-04-14T02:32:45.866Z,9.25
2023-04-14T02:35:12.648Z,9.52
2023-04-14T02:37:39.318Z,9.75
2023-04-14T02:40:06.789Z,10.08
2023-04-14T02:42:33.410Z,10.09
2023-04-14T02:45:00.051Z,10.25
2023-04-14T02:47:26.721Z,10.45
2023-04-14T02:49:53.395Z,10.36
2023-04-14T02:52:19.985Z,10.42
2023-04-14T02:54:46.559Z,10.20
2023-04-14T02:57:13.156Z,10.34
2023-04-14T02:59:39.818Z,10.18
2023-04-14T03:02:06.546Z,9.98
2023-04-14T03:04:33.222Z,9.42
2023-04-14T03:06:59.836Z,9.77
2023-04-14T03:09:26.395Z,10.14
2023-04-14T03:11:52.977Z,9.85
2023-04-14T03:14:21.911Z,9.52
2023-04-14T03:16:48.540Z,9.77
2023-04-14T03:19:15.137Z,9.66
2023-04-14T03:21:41.755Z,9.90
2023-04-14T03:24:08.641Z,9.92
2023-04-14T03:26:35.285Z,9.65
2023-04-14T03:29:02.089Z,9.84
2023-04-14T03:31:28.983Z,9.27
2023-04-14T03:33:55.761Z,9.36
2023-04-14T03:36:22.427Z,9.38
2023-04-14T03:38:49.010Z,9.36
2023-04-14T03:41:15.660Z,9.21
2023-04-14T03:43:42.232Z,9.32
2023-04-14T03:46:09.020Z,9.32
2023-04-14T03:48:35.978Z,9.55
2023-04-14T03:51:02.621Z,9.04
2023-04-14T03:53:29.213Z,9.23
2023-04-14T03:55:55.803Z,9.45
2023-04-14T03:58:22.398Z,9.55
2023-04-14T04:00:49.164Z,9.23
2023-04-14T04:03:16.058Z,9.13
2023-04-14T04:05:42.788Z,9.17
2023-04-14T04:08:09.401Z,9.34
2023-04-14T04:10:36.002Z,9.70
2023-04-14T04:13:02.604Z,9.53
2023-04-14T04:15:29.317Z,9.58
2023-04-14T04:17:56.043Z,9.50
2023-04-14T04:20:22.801Z,9.65
2023-04-14T04:22:49.419Z,9.75
2023-04-14T04:25:16.046Z,9.83
2023-04-14T04:27:42.854Z,9.93
2023-04-14T04:30:09.559Z,10.26
2023-04-14T04:32:36.191Z,10.00
2023-04-14T04:35:03.113Z,10.15
2023-04-14T04:37:29.726Z,10.09
2023-04-14T04:39:56.284Z,9.67
2023-04-14T04:42:22.930Z,9.84
2023-04-14T04:44:49.483Z,9.89
2023-04-14T04:47:16.096Z,9.99
2023-04-14T04:49:42.657Z,9.64
2023-04-14T04:52:09.267Z,10.08
2023-04-14T04:54:35.830Z,10.20
2023-04-14T04:57:02.518Z,10.06
2023-04-14T04:59:29.112Z,9.89
2023-04-14T05:01:55.794Z,9.58
2023-04-14T05:04:22.559Z,9.36
2023-04-14T05:06:49.207Z,9.76
2023-04-14T05:09:15.796Z,9.77
2023-04-14T05:11:42.354Z,9.96
2023-04-14T05:14:08.978Z,9.75
2023-04-14T05:16:36.627Z,10.04
2023-04-14T05:19:03.548Z,9.81
2023-04-14T05:21:30.276Z,9.83
2023-04-14T05:23:56.901Z,9.78
2023-04-14T05:28:52.949Z,9.65
2023-04-14T05:31:19.622Z,9.76
2023-04-14T05:33:46.235Z,9.52
2023-04-14T05:36:12.839Z,9.74
2023-04-14T05:38:39.417Z,9.79
2023-04-14T05:41:06.044Z,10.02
2023-04-14T05:43:32.663Z,10.26
2023-04-14T05:45:59.253Z,10.39
2023-04-14T05:48:25.822Z,10.31
2023-04-14T05:50:52.437Z,10.07
2023-04-14T05:53:18.995Z,9.71
2023-04-14T05:55:45.613Z,9.39
2023-04-14T05:58:12.201Z,9.73
2023-04-14T06:00:38.762Z,9.73
2023-04-14T06:03:05.646Z,9.90
2023-04-14T06:05:32.624Z,10.39
2023-04-14T06:08:07.755Z,10.18
2023-04-14T06:10:34.327Z,9.79
2023-04-14T06:13:00.970Z,9.82
2023-04-14T06:15:27.577Z,9.82
2023-04-14T06:17:54.461Z,9.93
2023-04-14T06:20:21.059Z,10.02
2023-04-14T06:22:47.707Z,9.73
2023-04-14T06:25:14.297Z,10.04
2023-04-14T06:27:40.886Z,10.11
2023-04-14T06:30:07.575Z,10.02
2023-04-14T06:32:34.217Z,10.28
2023-04-14T06:35:00.794Z,10.32
2023-04-14T06:37:27.417Z,10.30
2023-04-14T06:39:54.124Z,9.89
2023-04-14T06:42:20.762Z,10.08
2023-04-14T06:44:47.363Z,10.37
2023-04-14T06:47:13.928Z,10.14
2023-04-14T06:49:40.539Z,10.20
2023-04-14T06:52:07.148Z,10.02
2023-04-14T06:54:33.727Z,10.07
2023-04-14T06:57:01.214Z,10.14
2023-04-14T06:59:27.957Z,9.97
2023-04-14T07:01:54.819Z,10.07
2023-04-14T07:04:21.521Z,10.06
2023-04-14T07:06:48.100Z,10.52
2023-04-14T07:09:14.675Z,10.51
2023-04-14T07:11:41.289Z,10.60
2023-04-14T07:14:08.048Z,10.62
2023-04-14T07:16:34.616Z,10.63
2023-04-14T07:19:01.245Z,10.84
2023-04-14T07:21:27.828Z,10.87
2023-04-14T07:23:54.422Z,11.03
2023-04-14T07:26:21.037Z,11.14
2023-04-14T07:28:47.685Z,11.16
2023-04-14T07:31:14.315Z,11.04
2023-04-14T07:33:40.894Z,11.15
2023-04-14T07:36:07.520Z,10.84
2023-04-14T07:38:34.157Z,10.75
2023-04-14T07:41:00.803Z,10.94
2023-04-14T07:43:27.390Z,11.06
2023-04-14T07:45:53.981Z,11.12
2023-04-14T07:48:20.635Z,10.87
2023-04-14T07:50:47.331Z,10.24
2023-04-14T07:53:13.889Z,10.36
2023-04-14T07:55:40.474Z,10.48
2023-04-14T07:58:07.074Z,10.77
2023-04-14T08:00:34.072Z,10.86
2023-04-14T08:03:00.840Z,10.47
2023-04-14T08:05:27.557Z,10.77
2023-04-14T08:07:54.215Z,10.51
2023-04-14T08:10:20.801Z,10.41
2023-04-14T08:12:47.372Z,10.54
2023-04-14T08:15:14.004Z,10.81
2023-04-14T08:17:40.671Z,10.55
2023-04-14T08:20:07.458Z,10.41
2023-04-14T08:22:34.035Z,10.37
2023-04-14T08:25:00.695Z,10.17
2023-04-14T08:27:27.347Z,10.27
2023-04-14T08:29:53.908Z,10.32
2023-04-14T08:32:20.554Z,10.24
2023-04-14T08:35:37.530Z,10.38
2023-04-14T08:37:34.047Z,10.61
2023-04-14T08:40:00.626Z,10.96
2023-04-14T08:42:27.191Z,11.15
2023-04-14T08:44:53.844Z,10.63
2023-04-14T08:47:20.443Z,11.10
2023-04-14T08:49:47.135Z,11.14
2023-04-14T08:52:13.799Z,11.24
2023-04-14T08:54:40.408Z,11.31
2023-04-14T08:57:07.294Z,10.65
2023-04-14T08:59:33.886Z,10.80
2023-04-14T09:02:00.631Z,10.77
2023-04-14T09:04:27.416Z,10.89
2023-04-14T09:06:54.041Z,11.09
2023-04-14T09:09:20.632Z,10.95
2023-04-14T09:11:47.206Z,11.07
2023-04-14T09:14:13.807Z,11.01
2023-04-14T09:16:40.427Z,11.15
2023-04-14T09:19:07.929Z,11.27
2023-04-14T09:21:52.111Z,11.54
2023-04-14T09:24:20.753Z,11.49
2023-04-14T09:26:47.428Z,11.44
2023-04-14T09:29:14.039Z,11.39
2023-04-14T09:31:40.708Z,11.27
2023-04-14T09:34:07.366Z,11.36
2023-04-14T09:36:33.982Z,11.44
2023-04-14T09:39:00.550Z,11.41
2023-04-14T09:41:27.129Z,11.59
2023-04-14T09:43:53.707Z,11.71
2023-04-14T09:46:20.350Z,11.82
2023-04-14T09:48:47.030Z,12.13
2023-04-14T09:51:13.731Z,12.19
2023-04-14T09:53:40.486Z,12.07
2023-04-14T09:56:07.085Z,12.21
2023-04-14T09:58:33.737Z,12.31
2023-04-14T10:01:00.313Z,12.13
2023-04-14T10:03:27.034Z,12.33
2023-04-14T10:05:54.626Z,12.43
2023-04-14T10:08:21.280Z,12.65
2023-04-14T10:10:47.868Z,12.79
2023-04-14T10:13:14.450Z,12.80
2023-04-14T10:15:41.112Z,12.65
2023-04-14T10:18:07.733Z,12.85
2023-04-14T10:20:34.399Z,12.61
2023-04-14T10:23:01.182Z,12.78
2023-04-14T10:25:27.752Z,13.06
2023-04-14T10:27:54.459Z,13.11
2023-04-14T10:30:21.070Z,13.18
2023-04-14T10:32:47.685Z,13.22
2023-04-14T10:35:14.329Z,13.24
2023-04-14T10:37:40.959Z,13.38
2023-04-14T10:40:07.631Z,13.37
2023-04-14T10:42:34.239Z,13.44
2023-04-14T10:45:00.817Z,13.51
2023-04-14T10:47:27.447Z,13.55
2023-04-14T10:49:54.893Z,13.55
2023-04-14T10:52:21.498Z,13.57
2023-04-14T10:54:48.176Z,13.61
2023-04-14T10:57:14.824Z,13.56
2023-04-14T10:59:41.636Z,13.58
2023-04-14T11:02:08.409Z,13.38
2023-04-14T11:04:35.134Z,13.44
2023-04-14T11:07:01.769Z,13.25
2023-04-14T11:09:28.739Z,13.04
2023-04-14T11:11:55.413Z,12.86
2023-04-14T11:14:22.047Z,12.82
2023-04-14T11:17:02.842Z,13.03
2023-04-14T11:19:30.243Z,12.96
2023-04-14T11:21:56.827Z,13.12
2023-04-14T11:24:23.413Z,13.01
2023-04-14T11:26:50.365Z,12.63
2023-04-14T11:29:16.954Z,13.00
2023-04-14T11:31:43.645Z,12.69
2023-04-14T11:34:10.379Z,13.16
2023-04-14T11:36:37.028Z,13.25
2023-04-14T11:39:03.769Z,12.49
2023-04-14T11:41:30.407Z,12.26
2023-04-14T11:43:56.979Z,12.73
2023-04-14T11:46:24.106Z,12.77
2023-04-14T11:48:50.818Z,13.05
2023-04-14T11:51:17.418Z,13.11
2023-04-14T11:53:44.016Z,13.22
2023-04-14T11:56:10.657Z,13.01
2023-04-14T11:58:37.398Z,13.16
2023-04-14T12:01:03.998Z,13.26
2023-04-14T12:03:31.080Z,13.27
2023-04-14T12:05:57.971Z,12.59
2023-04-14T12:08:24.739Z,12.77
2023-04-14T12:10:51.334Z,12.82
2023-04-14T12:13:17.991Z,12.77
2023-04-14T12:15:44.561Z,12.72
2023-04-14T12:18:11.200Z,13.23
2023-04-14T12:20:37.808Z,13.56
2023-04-14T12:23:04.447Z,13.43
2023-04-14T12:25:31.080Z,13.29
2023-04-14T12:27:57.666Z,13.43
2023-04-14T12:30:24.231Z,13.42
2023-04-14T12:32:50.853Z,13.25
2023-04-14T12:35:17.564Z,13.24
2023-04-14T12:37:44.158Z,13.08
2023-04-14T12:40:12.534Z,13.44
2023-04-14T12:42:39.200Z,13.35
2023-04-14T12:45:05.804Z,13.44
2023-04-14T12:47:32.387Z,13.50
2023-04-14T12:49:59.048Z,13.62
2023-04-14T12:52:25.608Z,13.66
2023-04-14T12:54:52.361Z,13.43
2023-04-14T12:57:19.428Z,13.61
2023-04-14T12:59:46.120Z,13.67
2023-04-14T13:02:12.940Z,13.61
2023-04-14T13:04:39.661Z,13.72
2023-04-14T13:07:06.278Z,13.59
2023-04-14T13:09:32.950Z,13.48
2023-04-14T13:11:59.560Z,13.54
2023-04-14T13:14:26.152Z,12.75
2023-04-14T13:16:54.069Z,13.16
2023-04-14T13:19:21.344Z,13.43
2023-04-14T13:21:47.931Z,13.60
2023-04-14T13:24:14.526Z,14.05
2023-04-14T13:26:41.170Z,14.00
2023-04-14T13:29:07.765Z,14.07
2023-04-14T13:31:34.379Z,14.32
2023-04-14T13:34:00.967Z,14.33
2023-04-14T13:36:27.602Z,14.21
2023-04-14T13:38:54.209Z,13.99
2023-04-14T13:41:20.788Z,14.09
2023-04-14T13:43:47.378Z,13.78
2023-04-14T13:46:16.171Z,13.99
2023-04-14T13:48:43.829Z,14.27
2023-04-14T13:51:10.578Z,14.35
2023-04-14T13:53:37.248Z,14.53
2023-04-14T13:56:03.869Z,14.62
2023-04-14T13:58:30.426Z,14.70
2023-04-14T14:00:57.097Z,14.85
2023-04-14T14:03:23.831Z,14.83
2023-04-14T14:05:50.629Z,14.89
2023-04-14T14:08:17.292Z,14.87
2023-04-14T14:10:43.875Z,14.30
2023-04-14T14:13:10.605Z,13.70
2023-04-14T14:15:37.247Z,14.16
2023-04-14T14:18:03.983Z,14.48
2023-04-14T14:20:30.567Z,14.60
2023-04-14T14:22:57.151Z,14.42
2023-04-14T14:25:23.710Z,14.64
2023-04-14T14:27:50.323Z,14.70
2023-04-14T14:30:16.898Z,14.87
2023-04-14T14:32:43.549Z,14.81
2023-04-14T14:35:10.185Z,14.90
2023-04-14T14:37:36.979Z,14.83
2023-04-14T14:40:03.667Z,14.89
2023-04-14T14:42:30.309Z,14.85
2023-04-14T14:44:57.052Z,14.87
2023-04-14T14:47:24.229Z,14.63
2023-04-14T14:49:59.512Z,14.60
2023-04-14T14:52:30.248Z,14.55
2023-04-14T14:54:56.880Z,14.56
2023-04-14T14:57:23.466Z,14.59
2023-04-14T14:59:50.084Z,14.66
2023-04-14T15:02:18.897Z,14.79
2023-04-14T15:04:45.523Z,14.73
2023-04-14T15:07:12.123Z,14.69
2023-04-14T15:09:38.718Z,14.69
2023-04-14T15:12:05.290Z,14.77
2023-04-14T15:14:31.902Z,14.64
2023-04-14T15:16:58.531Z,14.68
2023-04-14T15:19:25.208Z,14.71
2023-04-14T15:21:52.073Z,14.64
2023-04-14T15:24:18.642Z,14.75
2023-04-14T15:26:45.265Z,14.48
2023-04-14T15:29:11.887Z,14.32
2023-04-14T15:31:38.529Z,14.27
2023-04-14T15:34:05.174Z,14.14
2023-04-14T15:36:31.791Z,14.02
2023-04-14T15:38:58.492Z,14.21
2023-04-14T15:41:25.076Z,14.20
2023-04-14T15:43:51.693Z,14.08
2023-04-14T15:46:18.566Z,14.30
2023-04-14T15:48:45.173Z,14.37
2023-04-14T15:51:11.790Z,14.40
2023-04-14T15:53:38.785Z,14.35
2023-04-14T15:56:05.369Z,14.38
2023-04-14T15:58:31.976Z,14.35
2023-04-14T16:00:58.628Z,14.09
2023-04-14T16:03:25.701Z,13.97
2023-04-14T16:05:52.478Z,14.02
2023-04-14T16:08:19.100Z,14.09
2023-04-14T16:10:45.716Z,14.08
2023-04-14T16:13:12.412Z,14.09
2023-04-14T16:15:39.042Z,14.06
2023-04-14T16:18:05.754Z,13.88
2023-04-14T16:20:32.331Z,13.80
2023-04-14T16:22:58.940Z,14.01
2023-04-14T16:25:25.558Z,14.14
2023-04-14T16:27:52.213Z,14.22
2023-04-14T16:30:18.783Z,14.16
2023-04-14T16:32:45.453Z,14.19
2023-04-14T16:35:12.103Z,14.07
2023-04-14T16:37:39.764Z,13.98
2023-04-14T16:40:06.378Z,14.08
2023-04-14T16:42:33.033Z,14.14
2023-04-14T16:44:59.597Z,14.15
2023-04-14T16:47:26.240Z,14.31
2023-04-14T16:49:53.199Z,14.05
2023-04-14T16:52:19.777Z,13.85
2023-04-14T16:54:46.371Z,13.87
2023-04-14T16:57:12.950Z,13.96
2023-04-14T16:59:39.573Z,13.85
2023-04-14T17:02:06.389Z,13.89
2023-04-14T17:04:33.415Z,13.94
2023-04-14T17:07:00.238Z,13.94
2023-04-14T17:09:27.224Z,13.92
2023-04-14T17:11:54.068Z,13.82
2023-04-14T17:14:21.221Z,13.71
2023-04-14T17:16:47.801Z,13.67
2023-04-14T17:19:14.418Z,13.72
2023-04-14T17:21:41.016Z,13.57
2023-04-14T17:24:07.657Z,13.42
2023-04-14T17:26:36.751Z,13.53
2023-04-14T17:29:03.543Z,13.42
2023-04-14T17:31:32.320Z,13.47
2023-04-14T17:33:59.086Z,13.42
2023-04-14T17:36:25.698Z,13.46
2023-04-14T17:38:52.289Z,13.50
2023-04-14T17:41:19.010Z,13.49
2023-04-14T17:43:45.566Z,13.43
2023-04-14T17:46:12.365Z,13.55
2023-04-14T17:48:38.991Z,13.41
2023-04-14T17:51:05.962Z,13.38
2023-04-14T17:53:32.620Z,13.40
2023-04-14T17:55:59.226Z,13.33
2023-04-14T17:58:25.954Z,13.33
2023-04-14T18:00:52.694Z,13.20
2023-04-14T18:03:19.503Z,13.12
2023-04-14T18:05:46.129Z,13.09
2023-04-14T18:08:12.716Z,13.08
2023-04-14T18:10:41.365Z,12.99
2023-04-14T18:13:07.949Z,12.94
2023-04-14T18:15:34.635Z,13.15
2023-04-14T18:18:01.277Z,13.09
2023-04-14T18:20:28.096Z,13.09
2023-04-14T18:22:54.929Z,13.14
2023-04-14T18:25:21.520Z,13.08
2023-04-14T18:30:17.596Z,12.90
2023-04-14T18:32:44.260Z,13.01
2023-04-14T18:35:10.898Z,13.17
2023-04-14T18:37:37.509Z,13.18
2023-04-14T18:40:04.148Z,13.08
2023-04-14T18:42:30.736Z,13.11
2023-04-14T18:44:57.292Z,13.04
2023-04-14T18:47:23.930Z,13.04
2023-04-14T18:49:50.556Z,13.05
2023-04-14T18:52:17.114Z,13.17
2023-04-14T18:54:43.713Z,13.20
2023-04-14T18:57:10.500Z,13.18
2023-04-14T18:59:37.090Z,13.15
2023-04-14T19:02:03.786Z,13.23
2023-04-14T19:04:30.480Z,13.29
2023-04-14T19:06:57.078Z,13.27
2023-04-14T19:09:23.740Z,13.23
2023-04-14T19:11:50.333Z,13.21
2023-04-14T19:14:16.905Z,13.25
2023-04-14T19:16:43.558Z,13.22
2023-04-14T19:19:10.136Z,13.14
2023-04-14T19:21:36.723Z,13.14
2023-04-14T19:24:03.280Z,13.07
2023-04-14T19:26:29.894Z,12.97
2023-04-14T19:28:56.467Z,12.99
2023-04-14T19:31:23.066Z,12.93
2023-04-14T19:33:49.695Z,12.94
2023-04-14T19:36:16.336Z,12.99
2023-04-14T19:38:42.915Z,13.05
2023-04-14T19:41:09.480Z,13.08
2023-04-14T19:43:36.088Z,13.04
2023-04-14T19:46:02.655Z,13.07
2023-04-14T19:48:29.313Z,13.04
2023-04-14T19:50:55.920Z,12.98
2023-04-14T19:53:22.672Z,13.03
2023-04-14T19:55:49.340Z,12.90
2023-04-14T19:58:15.950Z,12.57
2023-04-14T20:00:42.530Z,12.54
2023-04-14T20:03:09.155Z,12.36
2023-04-14T20:05:35.742Z,12.27
2023-04-14T20:08:02.469Z,12.33
2023-04-14T20:10:29.105Z,12.41
2023-04-14T20:12:55.675Z,12.62
2023-04-14T20:15:22.262Z,12.71
2023-04-14T20:17:48.880Z,12.69
2023-04-14T20:20:15.586Z,12.56
2023-04-14T20:22:42.218Z,12.56
2023-04-14T20:25:08.778Z,12.64
2023-04-14T20:27:35.438Z,12.66
2023-04-14T20:30:01.989Z,12.62
2023-04-14T20:32:28.608Z,12.67
2023-04-14T20:34:55.360Z,12.71
2023-04-14T20:37:21.977Z,12.74
2023-04-14T20:39:48.538Z,12.59
2023-04-14T20:42:15.105Z,12.53
2023-04-14T20:44:41.718Z,12.60
2023-04-14T20:47:08.297Z,12.48
2023-04-14T20:49:34.921Z,12.27
2023-04-14T20:52:01.523Z,12.28
2023-04-14T20:54:28.105Z,12.38
2023-04-14T20:56:54.744Z,12.35
2023-04-14T20:59:21.453Z,12.05
2023-04-14T21:01:48.106Z,11.86
2023-04-14T21:04:14.858Z,12.07
2023-04-14T21:06:41.829Z,12.14
2023-04-14T21:09:08.554Z,12.36
2023-04-14T21:11:35.372Z,12.29
2023-04-14T21:15:29.229Z,12.24
2023-04-14T21:16:48.745Z,12.18
2023-04-14T21:19:15.784Z,12.23
2023-04-14T21:21:42.600Z,12.32
2023-04-14T21:24:09.193Z,12.36
2023-04-14T21:26:35.803Z,12.36
2023-04-14T21:29:02.581Z,12.36
2023-04-14T21:31:29.336Z,12.08
2023-04-14T21:33:55.955Z,12.12
2023-04-14T21:36:22.533Z,12.14
2023-04-14T21:38:49.094Z,12.20
2023-04-14T21:41:16.110Z,12.27
2023-04-14T21:43:42.701Z,12.19
2023-04-14T21:46:09.385Z,12.46
2023-04-14T21:48:36.026Z,12.42
2023-04-14T21:51:02.661Z,12.18
2023-04-14T21:53:29.657Z,11.92
2023-04-14T21:56:09.471Z,12.20
2023-04-14T21:58:37.445Z,12.27
2023-04-14T22:01:04.055Z,12.34
2023-04-14T22:03:30.810Z,12.22
2023-04-14T22:05:57.506Z,12.16
2023-04-14T22:08:24.259Z,11.80
2023-04-14T22:10:51.438Z,11.94
2023-04-14T22:13:18.005Z,12.02
2023-04-14T22:15:44.623Z,12.26
2023-04-14T22:18:11.200Z,12.18
2023-04-14T22:20:37.954Z,12.24
2023-04-14T22:23:04.822Z,12.34
2023-04-14T22:25:31.480Z,12.14
2023-04-14T22:27:58.041Z,12.29
2023-04-14T22:30:24.750Z,12.24
2023-04-14T22:32:51.508Z,12.28
2023-04-14T22:35:18.125Z,12.36
2023-04-14T22:37:44.704Z,12.16
2023-04-14T22:40:11.300Z,12.07
2023-04-14T22:42:37.917Z,12.14
2023-04-14T22:45:04.474Z,12.18
2023-04-14T22:47:31.128Z,11.90
2023-04-14T22:49:57.765Z,11.89
2023-04-14T22:52:24.364Z,11.74
2023-04-14T22:54:50.910Z,11.75
2023-04-14T22:57:17.697Z,11.62
2023-04-14T22:59:44.277Z,11.46
2023-04-14T23:02:12.029Z,11.46
2023-04-14T23:04:39.280Z,11.37
2023-04-14T23:07:05.868Z,11.41
2023-04-14T23:09:32.621Z,11.67
2023-04-14T23:11:59.201Z,11.74
2023-04-14T23:14:25.785Z,11.90
2023-04-14T23:16:52.545Z,11.90
2023-04-14T23:19:19.122Z,12.07
2023-04-14T23:21:45.791Z,12.02
2023-04-14T23:24:12.378Z,12.08
2023-04-14T23:26:38.966Z,12.27
2023-04-14T23:29:05.630Z,12.39
2023-04-14T23:31:32.296Z,12.50
2023-04-14T23:33:58.908Z,12.52
2023-04-14T23:36:25.506Z,12.58
2023-04-14T23:38:52.157Z,12.48
2023-04-14T23:41:18.773Z,12.43
2023-04-14T23:43:45.387Z,12.38
2023-04-14T23:46:12.032Z,12.26
2023-04-14T23:48:38.830Z,12.37
2023-04-14T23:51:14.365Z,12.41
2023-04-14T23:53:42.851Z,12.48
2023-04-14T23:56:09.429Z,12.45
2023-04-14T23:58:36.068Z,12.49
